createdAt,value
2023-03-12T00:02:17.493Z,2.30
2023-03-12T00:04:41.300Z,2.23
2023-03-12T00:07:06.647Z,2.57
2023-03-12T00:09:30.263Z,2.10
2023-03-12T00:11:53.799Z,2.80
2023-03-12T00:14:17.453Z,2.67
2023-03-12T00:16:40.961Z,2.63
2023-03-12T00:19:04.628Z,2.93
2023-03-12T00:21:28.221Z,2.40
2023-03-12T00:23:54.247Z,2.30
2023-03-12T00:26:18.755Z,2.47
2023-03-12T00:28:42.743Z,2.60
2023-03-12T00:31:17.251Z,2.10
2023-03-12T00:33:40.810Z,2.47
2023-03-12T00:36:04.630Z,2.40
2023-03-12T00:38:28.238Z,2.60
2023-03-12T00:40:53.214Z,2.20
2023-03-12T00:43:16.853Z,2.30
2023-03-12T00:45:40.844Z,3.00
2023-03-12T00:48:04.641Z,2.33
2023-03-12T00:50:28.238Z,2.30
2023-03-12T00:52:52.322Z,2.73
2023-03-12T00:55:15.963Z,2.53
2023-03-12T00:57:40.924Z,2.30
2023-03-12T01:00:09.889Z,2.57
2023-03-12T01:02:33.544Z,2.67
2023-03-12T01:04:57.088Z,2.40
2023-03-12T01:07:21.985Z,2.20
2023-03-12T01:09:45.645Z,2.50
2023-03-12T01:12:09.894Z,3.30
2023-03-12T01:14:35.029Z,2.20
2023-03-12T01:16:58.633Z,2.77
2023-03-12T01:19:22.229Z,2.87
2023-03-12T01:21:46.070Z,2.40
2023-03-12T01:24:10.239Z,2.47
2023-03-12T01:26:33.896Z,2.40
2023-03-12T01:28:57.547Z,2.60
2023-03-12T01:31:22.882Z,2.27
2023-03-12T01:33:47.557Z,2.67
2023-03-12T01:36:19.021Z,2.43
2023-03-12T01:38:42.624Z,2.90
2023-03-12T01:41:06.326Z,2.87
2023-03-12T01:43:33.705Z,2.50
2023-03-12T01:46:33.348Z,2.40
2023-03-12T01:49:04.955Z,2.60
2023-03-12T01:51:33.082Z,2.73
2023-03-12T01:54:01.525Z,2.87
2023-03-12T01:56:32.256Z,2.57
2023-03-12T01:59:01.088Z,2.07
2023-03-12T02:01:25.497Z,2.50
2023-03-12T02:03:55.346Z,2.60
2023-03-12T02:06:26.253Z,2.80
2023-03-12T02:08:50.283Z,2.70
2023-03-12T02:11:14.219Z,2.70
2023-03-12T02:13:38.670Z,2.60
2023-03-12T02:16:02.439Z,3.10
2023-03-12T02:18:26.831Z,2.90
2023-03-12T02:21:01.284Z,2.93
2023-03-12T02:23:33.625Z,2.80
2023-03-12T02:26:00.138Z,2.87
2023-03-12T02:28:29.728Z,3.00
2023-03-12T02:30:57.182Z,2.80
2023-03-12T02:33:20.964Z,3.13
2023-03-12T02:35:46.953Z,2.90
2023-03-12T02:38:35.144Z,3.10
2023-03-12T02:41:02.430Z,3.10
2023-03-12T02:43:27.025Z,2.97
2023-03-12T02:45:51.547Z,3.30
2023-03-12T02:48:15.108Z,3.63
2023-03-12T02:50:38.689Z,3.10
2023-03-12T02:53:02.249Z,2.90
2023-03-12T02:55:25.850Z,2.90
2023-03-12T02:57:50.792Z,3.43
2023-03-12T03:00:17.672Z,3.07
2023-03-12T03:02:45.783Z,2.90
2023-03-12T03:05:12.253Z,3.53
2023-03-12T03:07:36.136Z,3.13
2023-03-12T03:10:04.017Z,2.57
2023-03-12T03:12:27.837Z,3.10
2023-03-12T03:14:52.872Z,3.13
2023-03-12T03:17:16.449Z,3.40
2023-03-12T03:19:40.080Z,3.10
2023-03-12T03:22:03.634Z,3.10
2023-03-12T03:24:27.553Z,3.10
2023-03-12T03:26:51.177Z,3.23
2023-03-12T03:29:15.354Z,3.27
2023-03-12T03:31:40.288Z,3.00
2023-03-12T03:34:03.869Z,3.47
2023-03-12T03:36:27.904Z,3.30
2023-03-12T03:39:05.713Z,3.60
2023-03-12T03:41:29.664Z,3.40
2023-03-12T03:43:57.626Z,3.40
2023-03-12T03:46:21.282Z,2.93
2023-03-12T03:48:52.442Z,3.33
2023-03-12T03:51:17.380Z,3.23
2023-03-12T03:53:43.875Z,3.50
2023-03-12T03:56:09.345Z,3.53
2023-03-12T03:58:35.318Z,3.80
2023-03-12T04:00:59.014Z,3.40
2023-03-12T04:03:22.812Z,3.20
2023-03-12T04:05:47.838Z,3.60
2023-03-12T04:08:12.125Z,4.07
2023-03-12T04:10:36.293Z,3.77
2023-03-12T04:13:00.049Z,3.80
2023-03-12T04:15:23.928Z,4.57
2023-03-12T04:17:47.648Z,3.57
2023-03-12T04:20:13.276Z,3.47
2023-03-12T04:22:39.872Z,3.77
2023-03-12T04:25:04.151Z,4.10
2023-03-12T04:27:27.691Z,4.00
2023-03-12T04:29:51.285Z,3.80
2023-03-12T04:32:14.963Z,4.10
2023-03-12T04:34:38.577Z,4.37
2023-03-12T04:37:03.150Z,4.07
2023-03-12T04:39:28.664Z,4.50
2023-03-12T04:41:52.313Z,3.97
2023-03-12T04:44:16.600Z,4.77
2023-03-12T04:46:41.043Z,4.13
2023-03-12T04:49:06.203Z,4.60
2023-03-12T04:51:33.192Z,4.80
2023-03-12T04:53:59.320Z,4.20
2023-03-12T04:56:24.545Z,5.13
2023-03-12T04:58:49.381Z,4.67
2023-03-12T05:01:25.535Z,4.87
2023-03-12T05:03:49.540Z,5.30
2023-03-12T05:06:13.180Z,5.03
2023-03-12T05:08:36.920Z,5.40
2023-03-12T05:11:00.489Z,5.33
2023-03-12T05:13:25.619Z,5.63
2023-03-12T05:15:53.614Z,5.80
2023-03-12T05:18:20.321Z,5.37
2023-03-12T05:20:44.392Z,5.40
2023-03-12T05:23:08.273Z,5.93
2023-03-12T05:25:31.858Z,5.30
2023-03-12T05:27:56.191Z,5.20
2023-03-12T05:30:23.041Z,5.43
2023-03-12T05:32:46.798Z,5.30
2023-03-12T05:35:11.311Z,5.77
2023-03-12T05:37:36.731Z,5.70
2023-03-12T05:40:00.726Z,5.17
2023-03-12T05:42:26.452Z,5.40
2023-03-12T05:44:51.482Z,5.97
2023-03-12T05:47:19.072Z,5.30
2023-03-12T05:49:44.233Z,5.00
2023-03-12T05:52:08.566Z,5.23
2023-03-12T05:54:32.548Z,5.43
2023-03-12T05:56:56.702Z,5.37
2023-03-12T05:59:22.042Z,5.30
2023-03-12T06:01:46.567Z,5.50
2023-03-12T06:04:11.785Z,6.37
2023-03-12T06:06:37.120Z,5.73
2023-03-12T06:09:01.455Z,6.10
2023-03-12T06:11:25.493Z,5.73
2023-03-12T06:13:49.269Z,5.10
2023-03-12T06:16:19.273Z,5.63
2023-03-12T06:18:43.127Z,5.50
2023-03-12T06:21:13.380Z,5.50
2023-03-12T06:23:37.093Z,5.93
2023-03-12T06:26:01.425Z,5.50
2023-03-12T06:28:25.333Z,5.47
2023-03-12T06:30:48.868Z,5.67
2023-03-12T06:33:12.420Z,5.37
2023-03-12T06:35:36.553Z,5.70
2023-03-12T06:38:01.512Z,5.10
2023-03-12T06:40:25.051Z,5.00
2023-03-12T06:42:48.798Z,4.40
2023-03-12T06:45:13.045Z,5.10
2023-03-12T06:47:36.599Z,5.80
2023-03-12T06:50:00.177Z,6.03
2023-03-12T06:52:23.862Z,6.47
2023-03-12T06:54:48.817Z,5.60
2023-03-12T06:57:12.403Z,5.90
2023-03-12T06:59:36.029Z,6.03
2023-03-12T07:01:59.599Z,5.47
2023-03-12T07:04:23.416Z,5.17
2023-03-12T07:06:50.445Z,3.97
2023-03-12T07:09:14.111Z,3.70
2023-03-12T07:11:39.015Z,3.87
2023-03-12T07:14:02.618Z,3.90
2023-03-12T07:16:26.321Z,4.20
2023-03-12T07:18:49.893Z,3.50
2023-03-12T07:21:13.441Z,4.00
2023-03-12T07:23:37.045Z,3.73
2023-03-12T07:26:00.595Z,3.97
2023-03-12T07:28:25.520Z,4.13
2023-03-12T07:30:50.634Z,3.63
2023-03-12T07:33:14.546Z,4.20
2023-03-12T07:35:39.796Z,3.93
2023-03-12T07:38:04.050Z,4.07
2023-03-12T07:40:27.749Z,4.13
2023-03-12T07:42:52.394Z,4.30
2023-03-12T07:45:17.530Z,3.80
2023-03-12T07:47:41.251Z,4.00
2023-03-12T07:50:05.379Z,3.77
2023-03-12T07:52:29.274Z,3.60
2023-03-12T07:54:54.370Z,3.80
2023-03-12T07:57:18.633Z,5.23
2023-03-12T07:59:42.305Z,4.17
2023-03-12T08:02:11.125Z,3.73
2023-03-12T08:04:34.809Z,3.47
2023-03-12T08:06:58.459Z,4.57
2023-03-12T08:09:22.031Z,4.47
2023-03-12T08:11:45.679Z,4.00
2023-03-12T08:14:09.270Z,3.50
2023-03-12T08:16:33.028Z,3.70
2023-03-12T08:18:58.184Z,3.80
2023-03-12T08:21:21.900Z,3.53
2023-03-12T08:23:45.626Z,3.00
2023-03-12T08:26:09.270Z,3.60
2023-03-12T08:28:32.824Z,3.60
2023-03-12T08:31:00.809Z,4.30
2023-03-12T08:33:24.473Z,3.70
2023-03-12T08:35:50.752Z,4.13
2023-03-12T08:38:14.607Z,3.57
2023-03-12T08:40:38.300Z,3.70
2023-03-12T08:43:01.883Z,3.70
2023-03-12T08:45:25.420Z,3.47
2023-03-12T08:47:49.224Z,3.70
2023-03-12T08:50:16.555Z,3.53
2023-03-12T08:52:41.838Z,3.58
2023-03-12T08:55:06.429Z,3.72
2023-03-12T08:57:30.284Z,4.00
2023-03-12T08:59:53.831Z,3.97
2023-03-12T09:02:17.387Z,3.80
2023-03-12T09:04:41.178Z,3.53
2023-03-12T09:07:04.982Z,3.42
2023-03-12T09:09:29.992Z,3.47
2023-03-12T09:11:54.447Z,3.72
2023-03-12T09:17:02.212Z,3.88
2023-03-12T09:19:25.841Z,3.50
2023-03-12T09:21:49.546Z,3.72
2023-03-12T09:24:13.752Z,3.33
2023-03-12T09:26:38.727Z,3.50
2023-03-12T09:29:02.357Z,3.22
2023-03-12T09:31:26.188Z,2.90
2023-03-12T09:33:49.735Z,3.20
2023-03-12T09:36:13.381Z,2.88
2023-03-12T09:38:38.022Z,2.90
2023-03-12T09:41:01.720Z,2.72
2023-03-12T09:43:35.577Z,2.72
2023-03-12T09:45:59.374Z,2.35
2023-03-12T09:48:31.064Z,2.42
2023-03-12T09:50:55.619Z,1.90
2023-03-12T09:53:28.407Z,1.65
2023-03-12T09:55:54.606Z,1.40
2023-03-12T09:58:26.232Z,1.40
2023-03-12T10:00:50.043Z,1.63
2023-03-12T10:03:31.243Z,1.60
2023-03-12T10:06:08.203Z,1.70
2023-03-12T10:08:43.749Z,1.90
2023-03-12T10:11:19.168Z,2.03
2023-03-12T10:14:03.086Z,2.00
2023-03-12T10:16:52.749Z,1.63
2023-03-12T10:19:33.574Z,1.55
2023-03-12T10:22:03.180Z,1.70
2023-03-12T10:24:42.229Z,1.48
2023-03-12T10:27:15.148Z,2.00
2023-03-12T10:29:44.783Z,1.80
2023-03-12T10:32:16.736Z,1.80
2023-03-12T10:34:45.802Z,1.60
2023-03-12T10:37:21.279Z,1.88
2023-03-12T10:39:45.065Z,1.85
2023-03-12T10:42:17.717Z,1.92
2023-03-12T10:44:42.818Z,1.83
2023-03-12T10:47:18.758Z,1.40
2023-03-12T10:49:42.347Z,1.90
2023-03-12T10:52:11.244Z,1.60
2023-03-12T10:54:38.183Z,1.90
2023-03-12T10:57:01.929Z,1.88
2023-03-12T10:59:31.205Z,1.70
2023-03-12T11:01:56.586Z,1.38
2023-03-12T11:04:24.783Z,1.45
2023-03-12T11:07:22.085Z,1.80
2023-03-12T11:09:45.928Z,1.80
2023-03-12T11:12:27.656Z,1.27
2023-03-12T11:14:51.926Z,1.50
2023-03-12T11:17:25.104Z,1.50
2023-03-12T11:19:48.746Z,1.15
2023-03-12T11:22:15.953Z,1.38
2023-03-12T11:24:58.234Z,1.27
2023-03-12T11:27:41.378Z,1.38
2023-03-12T11:30:08.167Z,2.05
2023-03-12T11:32:39.152Z,1.60
2023-03-12T11:35:04.371Z,2.50
2023-03-12T11:37:43.758Z,2.67
2023-03-12T11:40:26.810Z,2.17
2023-03-12T11:43:13.813Z,2.30
2023-03-12T11:45:50.583Z,2.10
2023-03-12T11:48:26.698Z,2.15
2023-03-12T11:51:06.904Z,2.25
2023-03-12T11:53:59.702Z,2.40
2023-03-12T11:56:29.545Z,2.40
2023-03-12T11:59:14.470Z,2.42
2023-03-12T12:01:49.647Z,2.28
2023-03-12T12:07:11.537Z,2.30
2023-03-12T12:09:43.948Z,2.30
2023-03-12T12:12:35.803Z,2.03
2023-03-12T12:15:21.063Z,2.63
2023-03-12T12:18:01.350Z,2.60
2023-03-12T12:20:38.840Z,2.10
2023-03-12T12:23:24.252Z,2.30
2023-03-12T12:26:10.736Z,2.10
2023-03-12T12:29:22.771Z,1.38
2023-03-12T12:31:52.612Z,2.72
2023-03-12T12:34:55.168Z,2.38
2023-03-12T12:37:31.793Z,2.30
2023-03-12T12:40:08.836Z,2.50
2023-03-12T12:42:35.206Z,2.45
2023-03-12T12:45:01.910Z,2.05
2023-03-12T12:47:38.712Z,2.30
2023-03-12T12:50:04.483Z,2.28
2023-03-12T12:52:29.838Z,2.50
2023-03-12T12:55:03.386Z,2.50
2023-03-12T12:57:35.302Z,2.30
2023-03-12T13:00:19.276Z,2.03
2023-03-12T13:02:47.935Z,2.10
2023-03-12T13:05:23.165Z,2.40
2023-03-12T13:07:46.763Z,2.95
2023-03-12T13:10:48.625Z,2.53
2023-03-12T13:13:23.367Z,3.10
2023-03-12T13:15:47.836Z,2.95
2023-03-12T13:18:25.773Z,2.78
2023-03-12T13:21:14.714Z,3.15
2023-03-12T13:23:48.128Z,2.75
2023-03-12T13:26:25.140Z,2.33
2023-03-12T13:29:23.463Z,2.53
2023-03-12T13:31:47.131Z,2.97
2023-03-12T13:34:45.992Z,2.45
2023-03-12T13:37:56.214Z,1.98
2023-03-12T13:40:55.614Z,2.28
2023-03-12T13:43:42.821Z,2.22
2023-03-12T13:46:10.447Z,2.58
2023-03-12T13:48:36.428Z,2.50
2023-03-12T13:51:03.972Z,3.00
2023-03-12T13:53:33.490Z,2.33
2023-03-12T13:56:05.971Z,2.20
2023-03-12T13:58:32.313Z,2.30
2023-03-12T14:01:03.850Z,2.20
2023-03-12T14:03:32.598Z,2.40
2023-03-12T14:06:00.750Z,2.85
2023-03-12T14:08:49.447Z,5.93
2023-03-12T14:11:33.698Z,2.00
2023-03-12T14:14:42.625Z,1.83
2023-03-12T14:17:06.848Z,1.88
2023-03-12T14:19:32.799Z,2.00
2023-03-12T14:22:01.514Z,1.80
2023-03-12T14:24:29.874Z,1.92
2023-03-12T14:26:55.454Z,3.85
2023-03-12T14:29:24.595Z,4.55
2023-03-12T14:31:50.299Z,1.50
2023-03-12T14:34:20.609Z,2.25
2023-03-12T14:36:48.997Z,1.80
2023-03-12T14:39:29.926Z,1.63
2023-03-12T14:42:01.161Z,2.50
2023-03-12T14:44:27.213Z,1.80
2023-03-12T14:47:00.742Z,2.27
2023-03-12T14:49:24.409Z,2.27
2023-03-12T14:51:47.943Z,2.72
2023-03-12T14:54:24.358Z,2.22
2023-03-12T14:56:48.304Z,2.80
2023-03-12T14:59:25.914Z,2.28
2023-03-12T15:01:50.049Z,3.80
2023-03-12T15:04:21.124Z,5.13
2023-03-12T15:06:47.719Z,53.80
2023-03-12T15:09:20.321Z,3.88
2023-03-12T15:11:45.221Z,55.33
2023-03-12T15:14:14.455Z,20.58
2023-03-12T15:16:38.224Z,23.67
2023-03-12T15:19:04.149Z,4.72
2023-03-12T15:21:29.279Z,2.90
2023-03-12T15:23:53.673Z,4.00
2023-03-12T15:26:38.102Z,2.20
2023-03-12T15:29:04.251Z,2.38
2023-03-12T15:31:29.684Z,2.40
2023-03-12T15:34:05.445Z,6.22
2023-03-12T15:36:31.997Z,11.98
2023-03-12T15:38:58.192Z,16.52
2023-03-12T15:41:24.819Z,4.45
2023-03-12T15:43:53.482Z,19.73
2023-03-12T15:46:19.706Z,13.03
2023-03-12T15:48:48.800Z,9.13
2023-03-12T15:51:17.334Z,6.07
2023-03-12T15:53:42.319Z,18.47
2023-03-12T15:56:19.962Z,7.07
2023-03-12T15:58:45.234Z,21.87
2023-03-12T16:01:12.710Z,13.87
2023-03-12T16:03:36.719Z,5.97
2023-03-12T16:06:00.229Z,4.13
2023-03-12T16:08:29.375Z,6.23
2023-03-12T16:10:55.595Z,4.43
2023-03-12T16:13:22.216Z,5.83
2023-03-12T16:15:47.849Z,3.10
2023-03-12T16:18:15.662Z,6.40
2023-03-12T16:20:39.188Z,29.37
2023-03-12T16:23:02.733Z,10.23
2023-03-12T16:25:26.730Z,10.00
2023-03-12T16:27:55.157Z,21.53
2023-03-12T16:30:24.119Z,4.73
2023-03-12T16:32:47.776Z,13.27
2023-03-12T16:35:15.812Z,17.77
2023-03-12T16:37:39.354Z,8.90
2023-03-12T16:40:02.875Z,13.63
2023-03-12T16:42:26.451Z,14.30
2023-03-12T16:44:51.389Z,37.47
2023-03-12T16:47:15.990Z,5.60
2023-03-12T16:49:39.611Z,9.50
2023-03-12T16:52:19.876Z,29.77
2023-03-12T16:54:43.474Z,21.97
2023-03-12T16:57:07.516Z,11.47
2023-03-12T16:59:33.307Z,26.67
2023-03-12T17:01:58.679Z,12.07
2023-03-12T17:04:22.410Z,6.23
2023-03-12T17:06:46.055Z,25.07
2023-03-12T17:09:09.905Z,29.43
2023-03-12T17:11:33.958Z,25.83
2023-03-12T17:14:01.883Z,18.57
2023-03-12T17:16:26.055Z,36.90
2023-03-12T17:18:51.212Z,33.87
2023-03-12T17:21:16.655Z,21.03
2023-03-12T17:23:40.316Z,94.33
2023-03-12T17:26:04.875Z,34.87
2023-03-12T17:28:28.552Z,33.30
2023-03-12T17:30:52.130Z,28.07
2023-03-12T17:33:20.447Z,41.87
2023-03-12T17:35:45.866Z,29.33
2023-03-12T17:38:09.989Z,61.60
2023-03-12T17:40:33.911Z,10.67
2023-03-12T17:42:57.931Z,21.60
2023-03-12T17:45:22.088Z,39.50
2023-03-12T17:47:45.787Z,34.37
2023-03-12T17:50:11.107Z,65.33
2023-03-12T17:52:36.355Z,64.77
2023-03-12T17:55:00.552Z,36.83
2023-03-12T17:57:25.015Z,36.80
2023-03-12T17:59:48.532Z,25.60
2023-03-12T18:02:14.313Z,64.77
2023-03-12T18:04:37.894Z,137.67
2023-03-12T18:07:01.644Z,24.80
2023-03-12T18:09:26.656Z,17.83
2023-03-12T18:11:50.274Z,8.67
2023-03-12T18:14:13.860Z,32.17
2023-03-12T18:16:37.679Z,12.80
2023-03-12T18:19:01.196Z,15.80
2023-03-12T18:21:25.035Z,9.97
2023-03-12T18:23:48.553Z,17.07
2023-03-12T18:26:13.555Z,17.00
2023-03-12T18:28:37.065Z,23.27
2023-03-12T18:31:00.693Z,23.93
2023-03-12T18:33:24.376Z,14.50
2023-03-12T18:35:48.015Z,15.53
2023-03-12T18:38:11.564Z,14.00
2023-03-12T18:40:35.248Z,22.63
2023-03-12T18:43:01.507Z,22.27
2023-03-12T18:45:25.118Z,30.33
2023-03-12T18:47:50.460Z,28.10
2023-03-12T18:50:14.592Z,18.57
2023-03-12T18:52:38.137Z,57.53
2023-03-12T18:55:01.845Z,22.13
2023-03-12T18:57:25.356Z,18.83
2023-03-12T18:59:50.303Z,23.40
2023-03-12T19:02:14.159Z,33.97
2023-03-12T19:04:37.740Z,45.53
2023-03-12T19:07:01.275Z,41.53
2023-03-12T19:09:24.952Z,84.50
2023-03-12T19:11:48.774Z,40.03
2023-03-12T19:14:12.618Z,20.07
2023-03-12T19:16:37.891Z,20.47
2023-03-12T19:19:02.796Z,19.63
2023-03-12T19:21:26.501Z,15.90
2023-03-12T19:23:50.234Z,15.93
2023-03-12T19:26:14.531Z,27.90
2023-03-12T19:28:39.082Z,32.10
2023-03-12T19:31:04.285Z,14.33
2023-03-12T19:33:29.669Z,12.80
2023-03-12T19:35:53.273Z,16.50
2023-03-12T19:38:17.771Z,11.27
2023-03-12T19:40:41.312Z,15.40
2023-03-12T19:43:04.912Z,12.07
2023-03-12T19:45:28.618Z,12.33
2023-03-12T19:47:52.663Z,9.53
2023-03-12T19:50:20.144Z,11.90
2023-03-12T19:52:43.733Z,10.90
2023-03-12T19:55:08.938Z,10.87
2023-03-12T19:57:32.858Z,11.13
2023-03-12T19:59:56.406Z,9.60
2023-03-12T20:02:20.047Z,15.20
2023-03-12T20:04:43.690Z,16.07
2023-03-12T20:07:09.000Z,13.27
2023-03-12T20:09:32.786Z,10.43
2023-03-12T20:11:56.399Z,10.27
2023-03-12T20:14:19.965Z,12.17
2023-03-12T20:16:43.562Z,14.87
2023-03-12T20:19:07.112Z,11.03
2023-03-12T20:21:30.933Z,9.50
2023-03-12T20:23:56.697Z,11.50
2023-03-12T20:26:20.244Z,9.83
2023-03-12T20:28:43.878Z,12.27
2023-03-12T20:31:11.558Z,15.03
2023-03-12T20:33:35.108Z,12.10
2023-03-12T20:35:58.716Z,12.43
2023-03-12T20:38:22.215Z,12.70
2023-03-12T20:40:48.083Z,13.33
2023-03-12T20:43:11.662Z,12.77
2023-03-12T20:45:36.040Z,14.63
2023-03-12T20:47:59.712Z,13.07
2023-03-12T20:50:23.293Z,12.53
2023-03-12T20:52:46.794Z,11.20
2023-03-12T20:55:10.993Z,12.70
2023-03-12T20:57:36.035Z,10.13
2023-03-12T21:00:00.090Z,11.50
2023-03-12T21:02:23.739Z,12.50
2023-03-12T21:04:49.446Z,11.47
2023-03-12T21:07:13.189Z,10.87
2023-03-12T21:09:37.404Z,10.47
2023-03-12T21:12:01.423Z,10.03
2023-03-12T21:14:26.436Z,11.10
2023-03-12T21:16:50.062Z,12.57
2023-03-12T21:19:13.771Z,10.70
2023-03-12T21:21:38.028Z,12.40
2023-03-12T21:24:02.623Z,11.90
2023-03-12T21:26:27.046Z,12.13
2023-03-12T21:28:50.611Z,11.57
2023-03-12T21:31:18.436Z,10.70
2023-03-12T21:33:42.246Z,10.57
2023-03-12T21:36:11.491Z,11.87
2023-03-12T21:38:36.927Z,10.97
2023-03-12T21:41:07.981Z,10.93
2023-03-12T21:43:31.724Z,10.77
2023-03-12T21:45:56.025Z,12.33
2023-03-12T21:48:21.428Z,11.57
2023-03-12T21:50:45.607Z,12.63
2023-03-12T21:53:22.940Z,12.73
2023-03-12T21:55:57.024Z,11.50
2023-03-12T21:58:20.558Z,11.43
2023-03-12T22:00:44.551Z,11.88
2023-03-12T22:03:08.143Z,11.27
2023-03-12T22:05:33.471Z,11.40
2023-03-12T22:07:57.101Z,11.15
2023-03-12T22:10:20.980Z,11.32
2023-03-12T22:12:45.138Z,10.23
2023-03-12T22:15:10.666Z,10.85
2023-03-12T22:17:35.025Z,10.97
2023-03-12T22:19:58.541Z,10.80
2023-03-12T22:22:23.885Z,11.00
2023-03-12T22:24:47.415Z,11.52
2023-03-12T22:27:11.041Z,11.47
2023-03-12T22:29:35.230Z,11.20
2023-03-12T22:31:59.091Z,11.52
2023-03-12T22:34:22.908Z,10.90
2023-03-12T22:36:46.538Z,12.07
2023-03-12T22:39:12.009Z,12.48
2023-03-12T22:41:35.759Z,12.55
2023-03-12T22:44:05.004Z,12.05
2023-03-12T22:46:29.121Z,12.63
2023-03-12T22:48:56.116Z,13.02
2023-03-12T22:51:20.626Z,11.57
2023-03-12T22:53:44.264Z,13.05
2023-03-12T22:56:12.266Z,11.70
2023-03-12T22:58:36.548Z,12.13
2023-03-12T23:01:02.154Z,12.43
2023-03-12T23:03:25.685Z,11.33
2023-03-12T23:05:49.697Z,11.80
2023-03-12T23:08:13.554Z,11.65
2023-03-12T23:10:37.192Z,10.50
2023-03-12T23:13:02.327Z,11.43
2023-03-12T23:15:35.140Z,11.57
2023-03-12T23:18:04.034Z,12.98
2023-03-12T23:20:27.657Z,12.23
2023-03-12T23:22:51.237Z,13.18
2023-03-12T23:25:14.739Z,12.52
2023-03-12T23:27:38.325Z,12.70
2023-03-12T23:30:03.321Z,13.05
2023-03-12T23:32:27.068Z,12.63
2023-03-12T23:34:50.816Z,12.25
2023-03-12T23:37:14.680Z,12.90
2023-03-12T23:39:53.653Z,12.07
2023-03-12T23:42:17.982Z,11.55
2023-03-12T23:44:41.471Z,12.32
2023-03-12T23:47:06.930Z,10.68
2023-03-12T23:49:30.433Z,12.13
2023-03-12T23:51:53.985Z,12.73
2023-03-12T23:54:17.598Z,12.30
2023-03-12T23:56:42.028Z,12.70
2023-03-12T23:59:06.929Z,12.18
